Terminal Aerodrome Forecast
Issued by NWS Detroit/Pontiac, MI

Home | Current Version | Previous Version | Text Only | Print | Product List | Glossary On
Versions: 1 2 3 4 5 6 7 8 9 10 11 12 13 14 15 16 17 18
000
FTUS43 KDTX 060533
TAFFNT
TAF
KFNT 060533Z 0606/0706 VRB04KT 6SM BR SCT250
     FM061000 11005KT 4SM BR BKN010
     FM061400 10010KT P6SM BKN015 OVC150
     FM062000 13007KT 4SM -SHRA BR BKN018 OVC028
     FM070300 26015G23KT P6SM OVC012=

USA.gov is the U.S. government's official web portal to all federal, state and local government web resources and services.